Aérodrome :
LOGIN :

S'inscrire | Disclaimer

   EN    FR    IT 

 










Légende :    VFR   VFR Marginal   IFR   IFR Intensif   IFR Très Intensif
Visi : 
Plafond : 
>= 8 km
>= 3000ft
5 à 8 km
1000 à 3000 ft
1500m à 5 km
500 à 1000 ft
800 à 1500m
200 à 500 ft
< 800m
< 200 ft
Symboles :   Orages  Brouillard  Fortes neiges  Fortes précipitations  Vent > 20 kt
SIGMETs :   Divers  Orages  Givrage  Turbulence  Onde Orograph.  Cendres Volcan.






- Altitude de l'aérodrome : 219 ft
- Code IATA : DNR


LFRD - Dinard

DERNIER METAR :
  • 050800Z AUTO 19013KT 9000 -RADZ BKN014 OVC020 17/15 Q1008 TEMPO 4000 RA BKN008

METARs EXPIRÉS :
  • 050730Z AUTO 18011KT 9999 BKN013 BKN018 OVC080 18/15 Q1008 TEMPO 4000 RA BKN008
  • 050700Z AUTO 18012KT CAVOK 17/15 Q1009 TEMPO 4000 RA BKN008
  • 050630Z AUTO 19009KT 9999 FEW045 BKN100 16/14 Q1009 TEMPO 4000 RA BKN008
  • 050600Z AUTO 19007KT 9999 FEW046 OVC110 15/13 Q1009 TEMPO 4000 RA BKN008
  • 050530Z AUTO 18006KT CAVOK 14/14 Q1009 TEMPO 4000 RA BKN008
  • 050500Z AUTO 19006KT CAVOK 14/14 Q1010 TEMPO RA BKN011

TAF TAF LFRD
Valide du 05 à 06h jusqu'au 06 à 06h UTC


050500Z 0506/0606 19005KT 9999 BKN040
TEMPO 0506/0514 4000 RA BKN008
BECMG 0508/0510 20015KT
PROB40
TEMPO 0510/0603 23015G25KT
TEMPO 0514/0606 4000 SHRA
PROB30
TEMPO 0514/0517 BKN013
ATIS : +33 2 99 16 81 50



MET'MAP, la Météo Aéronautique d'un coup d'oeil ! - Copyright ORBIFLY Décembre 2007 - Disclaimer

ORBIFLY MET'MAP TEAM :

Programmation & Développement : Alexandra Zaïnal
Sur une idée originale de : Baudouin d'Aumeries
Assistance à la programmation : Marc-Olivier Méhu
Soutien technique & logistique : Manuel Goepfert

Contact : metmap@orbifly.com




SOURCES & CREDITS :

   NOAA